Time,TemperatureF,DewpointF,PressureIn,WindDirection,WindDirectionDegrees,WindSpeedMPH,WindSpeedGustMPH,Humidity,HourlyPrecipIn,Conditions,Clouds,dailyrainin,SoftwareType,DateUTC
2013-08-05 00:01:00,69.1,64.4,29.34,South,180,0.0,-999.0,85,-99.99,,,0.00,Acu-Link.com,2013-08-05 05:01:00,
2013-08-05 00:16:00,68.2,64.2,29.33,South,180,0.0,-999.0,87,-99.99,,,0.00,Acu-Link.com,2013-08-05 05:16:00,
2013-08-05 00:46:00,67.6,67.0,29.32,SSW,202,0.0,-999.0,98,-99.99,,,0.00,Acu-Link.com,2013-08-05 05:46:00,
2013-08-05 01:01:00,67.3,66.7,29.32,South,180,0.0,-999.0,98,-99.99,,,0.00,Acu-Link.com,2013-08-05 06:01:00,
2013-08-05 01:18:00,66.6,66.0,29.31,South,180,0.0,-999.0,98,-99.99,,,0.00,Acu-Link.com,2013-08-05 06:18:00,
2013-08-05 01:34:00,66.0,65.4,29.31,SSW,202,0.0,-999.0,98,-99.99,,,0.00,Acu-Link.com,2013-08-05 06:34:00,
2013-08-05 01:49:00,65.7,65.1,29.30,South,180,0.0,-999.0,98,-99.99,,,0.00,Acu-Link.com,2013-08-05 06:49:00,
2013-08-05 02:04:00,65.3,64.7,29.29,SE,135,0.0,-999.0,98,-99.99,,,0.00,Acu-Link.com,2013-08-05 07:04:00,
2013-08-05 02:22:00,64.9,64.3,29.29,South,180,0.0,-999.0,98,-99.99,,,0.00,Acu-Link.com,2013-08-05 07:22:00,
2013-08-05 02:38:00,63.9,63.3,29.28,SSW,202,0.0,-999.0,98,-99.99,,,0.00,Acu-Link.com,2013-08-05 07:38:00,
2013-08-05 02:54:00,63.5,62.9,29.28,SW,225,0.0,-999.0,98,-99.99,,,0.00,Acu-Link.com,2013-08-05 07:54:00,
2013-08-05 03:09:00,63.1,62.5,29.27,SSE,157,0.0,-999.0,98,-99.99,,,0.00,Acu-Link.com,2013-08-05 08:09:00,
2013-08-05 03:29:00,63.1,62.5,29.27,SE,135,0.0,-999.0,98,-99.99,,,0.00,Acu-Link.com,2013-08-05 08:29:00,
2013-08-05 03:45:00,63.1,62.5,29.27,South,180,0.0,-999.0,98,-99.99,,,0.00,Acu-Link.com,2013-08-05 08:45:00,
2013-08-05 04:00:00,62.4,61.8,29.26,SE,135,0.0,-999.0,98,-99.99,,,0.00,Acu-Link.com,2013-08-05 09:00:00,
2013-08-05 04:19:00,61.7,61.1,29.25,South,180,0.0,-999.0,98,-99.99,,,0.00,Acu-Link.com,2013-08-05 09:19:00,
2013-08-05 04:35:00,61.5,60.9,29.25,ESE,112,0.0,-999.0,98,-99.99,,,0.00,Acu-Link.com,2013-08-05 09:35:00,
2013-08-05 04:50:00,62.1,61.5,29.25,SSE,157,0.0,-999.0,98,-99.99,,,0.00,Acu-Link.com,2013-08-05 09:50:00,
2013-08-05 05:22:00,61.5,60.9,29.25,West,270,0.0,-999.0,98,-99.99,,,0.00,Acu-Link.com,2013-08-05 10:22:00,
2013-08-05 05:38:00,62.2,58.6,29.26,SSE,157,0.0,-999.0,88,-99.99,,,0.00,Acu-Link.com,2013-08-05 10:38:00,
2013-08-05 05:55:00,63.7,58.1,29.26,SE,135,0.0,-999.0,82,-99.99,,,0.00,Acu-Link.com,2013-08-05 10:55:00,
2013-08-05 06:10:00,64.6,57.9,29.25,WNW,292,0.0,-999.0,79,-99.99,,,0.00,Acu-Link.com,2013-08-05 11:10:00,
2013-08-05 06:25:00,65.3,57.9,29.24,ESE,112,0.0,-999.0,77,-99.99,,,0.00,Acu-Link.com,2013-08-05 11:25:00,
2013-08-05 06:55:00,64.9,57.9,29.25,NNE,22,0.0,-999.0,78,-99.99,,,0.00,Acu-Link.com,2013-08-05 11:55:00,
2013-08-05 07:10:00,65.8,59.8,29.24,SSW,202,0.0,-999.0,81,-99.99,,,0.00,Acu-Link.com,2013-08-05 12:10:00,
2013-08-05 07:25:00,67.3,63.0,29.24,South,180,0.0,-999.0,86,-99.99,,,0.00,Acu-Link.com,2013-08-05 12:25:00,
2013-08-05 07:40:00,69.4,68.8,29.24,SW,225,0.0,-999.0,98,-99.99,,,0.00,Acu-Link.com,2013-08-05 12:40:00,
2013-08-05 08:10:00,72.9,72.3,29.23,South,180,0.0,-999.0,98,-99.99,,,0.00,Acu-Link.com,2013-08-05 13:10:00,
2013-08-05 08:26:00,77.2,73.0,29.22,SW,225,0.0,-999.0,87,-99.99,,,0.00,Acu-Link.com,2013-08-05 13:26:00,
2013-08-05 09:11:00,83.3,73.7,29.22,ENE,67,0.0,-999.0,73,-99.99,,,0.00,Acu-Link.com,2013-08-05 14:11:00,
2013-08-05 09:26:00,84.0,73.6,29.21,WSW,247,0.0,-999.0,71,-99.99,,,0.00,Acu-Link.com,2013-08-05 14:26:00,
2013-08-05 10:12:00,86.5,73.3,29.22,SE,135,0.0,-999.0,65,-99.99,,,0.00,Acu-Link.com,2013-08-05 15:12:00,
2013-08-05 10:27:00,83.1,72.7,29.24,SSE,157,0.0,-999.0,71,-99.99,,,0.00,Acu-Link.com,2013-08-05 15:27:00,
2013-08-05 10:42:00,80.2,72.7,29.23,West,270,0.0,-999.0,78,-99.99,,,0.00,Acu-Link.com,2013-08-05 15:42:00,
2013-08-05 10:57:00,76.8,72.3,29.25,WSW,247,0.0,-999.0,86,-99.99,,,0.00,Acu-Link.com,2013-08-05 15:57:00,
2013-08-05 11:12:00,75.4,74.8,29.25,NW,315,0.0,-999.0,98,-99.99,,,0.00,Acu-Link.com,2013-08-05 16:12:00,
2013-08-05 11:27:00,75.4,74.8,29.26,West,270,0.0,-999.0,98,-99.99,,,0.00,Acu-Link.com,2013-08-05 16:27:00,
2013-08-05 11:42:00,77.4,76.8,29.24,NNW,337,0.0,-999.0,98,-99.99,,,0.00,Acu-Link.com,2013-08-05 16:42:00,
2013-08-05 11:57:00,80.4,74.7,29.24,SW,225,0.0,-999.0,83,-99.99,,,0.00,Acu-Link.com,2013-08-05 16:57:00,
2013-08-05 12:13:00,78.8,73.9,29.23,SE,135,0.0,-999.0,85,-99.99,,,0.00,Acu-Link.com,2013-08-05 17:13:00,
2013-08-05 12:58:00,77.9,73.7,29.17,South,180,0.0,-999.0,87,-99.99,,,0.00,Acu-Link.com,2013-08-05 17:58:00,
2013-08-05 13:13:00,81.1,75.8,29.18,West,270,0.0,-999.0,84,-99.99,,,0.00,Acu-Link.com,2013-08-05 18:13:00,
2013-08-05 13:28:00,83.5,76.3,29.18,South,180,0.0,-999.0,79,-99.99,,,0.00,Acu-Link.com,2013-08-05 18:28:00,
2013-08-05 13:43:00,82.8,75.2,29.19,WNW,292,0.0,-999.0,78,-99.99,,,0.00,Acu-Link.com,2013-08-05 18:43:00,
2013-08-05 13:58:00,83.5,75.9,29.15,SSE,157,0.0,-999.0,78,-99.99,,,0.00,Acu-Link.com,2013-08-05 18:58:00,
2013-08-05 14:13:00,80.8,74.8,29.13,SSW,202,0.0,-999.0,82,-99.99,,,0.00,Acu-Link.com,2013-08-05 19:13:00,
2013-08-05 14:28:00,78.4,74.2,29.10,SSE,157,0.0,-999.0,87,-99.99,,,0.00,Acu-Link.com,2013-08-05 19:28:00,
2013-08-05 14:44:00,79.7,75.5,29.10,SSW,202,0.0,-999.0,87,-99.99,,,0.00,Acu-Link.com,2013-08-05 19:44:00,
2013-08-05 14:59:00,85.1,77.4,29.11,ESE,112,0.0,-999.0,78,-99.99,,,0.00,Acu-Link.com,2013-08-05 19:59:00,
2013-08-05 15:14:00,85.1,76.3,29.12,SSW,202,0.0,-999.0,75,-99.99,,,0.00,Acu-Link.com,2013-08-05 20:14:00,
2013-08-05 15:29:00,88.5,77.0,29.14,North,0,0.0,-999.0,69,-99.99,,,0.00,Acu-Link.com,2013-08-05 20:29:00,
2013-08-05 15:44:00,91.6,77.2,29.14,ENE,67,0.0,-999.0,63,-99.99,,,0.00,Acu-Link.com,2013-08-05 20:44:00,
2013-08-05 15:59:00,90.0,77.1,29.15,South,180,0.0,-999.0,66,-99.99,,,0.00,Acu-Link.com,2013-08-05 20:59:00,
2013-08-05 16:14:00,93.7,76.6,29.14,North,0,0.0,-999.0,58,-99.99,,,0.00,Acu-Link.com,2013-08-05 21:14:00,
2013-08-05 16:29:00,94.6,76.4,29.15,West,270,0.0,-999.0,56,-99.99,,,0.00,Acu-Link.com,2013-08-05 21:29:00,
2013-08-05 16:44:00,95.2,77.5,29.15,SSW,202,0.0,-999.0,57,-99.99,,,0.00,Acu-Link.com,2013-08-05 21:44:00,
2013-08-05 17:00:00,91.4,76.0,29.15,NNW,337,0.0,-999.0,61,-99.99,,,0.00,Acu-Link.com,2013-08-05 22:00:00,
2013-08-05 17:15:00,89.4,77.0,29.14,SW,225,0.0,-999.0,67,-99.99,,,0.00,Acu-Link.com,2013-08-05 22:15:00,
2013-08-05 17:30:00,91.8,77.8,29.15,North,0,0.0,-999.0,64,-99.99,,,0.00,Acu-Link.com,2013-08-05 22:30:00,
2013-08-05 17:45:00,91.2,76.8,29.14,West,270,0.0,-999.0,63,-99.99,,,0.00,Acu-Link.com,2013-08-05 22:45:00,
2013-08-05 18:00:00,91.2,76.8,29.15,WNW,292,0.0,-999.0,63,-99.99,,,0.00,Acu-Link.com,2013-08-05 23:00:00,
2013-08-05 18:15:00,91.2,75.3,29.15,ENE,67,0.0,-999.0,60,-99.99,,,0.00,Acu-Link.com,2013-08-05 23:15:00,
2013-08-05 18:30:00,89.4,74.1,29.15,NNW,337,0.0,-999.0,61,-99.99,,,0.00,Acu-Link.com,2013-08-05 23:30:00,
2013-08-05 18:45:00,90.5,74.7,29.14,NNW,337,0.0,-999.0,60,-99.99,,,0.00,Acu-Link.com,2013-08-05 23:45:00,
2013-08-05 19:00:00,89.6,73.8,29.15,NW,315,0.0,-999.0,60,-99.99,,,0.00,Acu-Link.com,2013-08-06 00:00:00,
2013-08-05 19:16:00,88.2,73.0,29.15,WNW,292,0.0,-999.0,61,-99.99,,,0.00,Acu-Link.com,2013-08-06 00:16:00,
2013-08-05 19:31:00,86.9,73.2,29.15,WNW,292,0.0,-999.0,64,-99.99,,,0.00,Acu-Link.com,2013-08-06 00:31:00,
2013-08-05 19:46:00,84.6,72.8,29.15,WSW,247,0.0,-999.0,68,-99.99,,,0.00,Acu-Link.com,2013-08-06 00:46:00,
2013-08-05 20:01:00,82.6,73.0,29.15,SSW,202,0.0,-999.0,73,-99.99,,,0.00,Acu-Link.com,2013-08-06 01:01:00,
2013-08-05 20:16:00,80.1,72.6,29.15,SSW,202,0.0,-999.0,78,-99.99,,,0.00,Acu-Link.com,2013-08-06 01:16:00,
2013-08-05 21:01:00,75.4,74.8,29.15,SSW,202,0.0,-999.0,98,-99.99,,,0.00,Acu-Link.com,2013-08-06 02:01:00,
2013-08-05 21:16:00,74.3,73.7,29.14,SSW,202,0.0,-999.0,98,-99.99,,,0.00,Acu-Link.com,2013-08-06 02:16:00,
2013-08-05 21:47:00,72.5,71.9,29.15,ESE,112,0.0,-999.0,98,-99.99,,,0.00,Acu-Link.com,2013-08-06 02:47:00,
2013-08-05 22:02:00,72.0,71.4,29.14,SSW,202,0.0,-999.0,98,-99.99,,,0.00,Acu-Link.com,2013-08-06 03:02:00,
2013-08-05 22:32:00,70.7,70.1,29.14,SW,225,0.0,-999.0,98,-99.99,,,0.00,Acu-Link.com,2013-08-06 03:32:00,
2013-08-05 22:47:00,70.7,70.1,29.13,WNW,292,0.0,-999.0,98,-99.99,,,0.00,Acu-Link.com,2013-08-06 03:47:00,
2013-08-05 23:02:00,70.7,70.1,29.14,WNW,292,0.0,-999.0,98,-99.99,,,0.00,Acu-Link.com,2013-08-06 04:02:00,
2013-08-05 23:17:00,70.9,70.3,29.14,WNW,292,0.0,-999.0,98,-99.99,,,0.00,Acu-Link.com,2013-08-06 04:17:00,
2013-08-05 23:32:00,71.1,70.5,29.14,WNW,292,0.0,-999.0,98,-99.99,,,0.00,Acu-Link.com,2013-08-06 04:32:00,
2013-08-05 23:48:00,71.4,70.8,29.14,WNW,292,0.0,-999.0,98,-99.99,,,0.00,Acu-Link.com,2013-08-06 04:48:00,